Yolo, CA

6:44 AM PST on December 28, 2014 (GMT -0800)
Central Woodland | Change Station
CLOSE
Current Station
Personal Weather Station
Location: Woodland, CA
Elevation: 68 ft
Nearby Weather Stations

Elev 68 ft 38.68 °N, 121.77 °W | Updated 15 seconds ago

Partly Cloudy
Partly Cloudy
37.2 °F
Feels Like 37 °F
N
0.0
Wind Variable Wind from SSE
Gusts 0.0 mph

Today
High -- | Low -- °F
--% Chance of Precip.
Yesterday
High -- | Low -- °F
Precip. -- in
7:24 AM 4:53 PM
Waxing Crescent, 48% visible
Pressure 30.33 in
Visibility 9.0 miles
Clouds Clear
Windchill 37 °F
Dew Point 35 °F
Humidity 91%
Rainfall 0.00 in
Snow Depth Not available.
UV 0 out of 12
Pollen 4.10 out of 12
Air Quality Not available.
Flu Activity Not available.
METAR KSMF 281353Z 32004KT 9SM CLR 03/02 A3033 RMK AO2 SLP269 T00280017

More Conditions Fewer Conditions

Pressure 30.33 in
Visibility 9.0 miles
Clouds Clear
Windchill 37 °F
Dew Point 35 °F
Humidity 91%
Rainfall 0.00 in
Snow Depth Not available.
UV 0 out of 12
Pollen 4.10 out of 12
Air Quality Not available.
Flu Activity Not available.
METAR KSMF 281353Z 32004KT 9SM CLR 03/02 A3033 RMK AO2 SLP269 T00280017

More Conditions Fewer Conditions

10-Day Weather Forecast

Almanac

Astronomy

Dec. 28, 2014 Rise Set
Actual Time
Civil Twilight
Nautical Twilight
Astronomical Twilight
Moon
Length of Visible Light
Length of Day
Tomorrow will be .
, % of the Moon is Illuminated

Today's Extremes

State Highs State Lows

Community

WunderPhotos

Upload Photos

1,781,274 photos uploaded!

WunderBlogs® & News

Nearby

Air Quality

  Air Quality AQ Index Pollutant
Not available.

Snow Depth

Station Depth Elevation

Earthquake Activity

City Distance Mag. Time & Date
Minimum magnitude displayed is 2.5.

Coastal Water Temperatures

Place Temperature

Nearby Weather Stations